Time;durP1;ratioP1;P1;durP2;ratioP2;P2;SDS_P1;SDS_P2;PMS_P1;PMS_P2;Temp;Humidity;BMP_temperature;BMP_pressure;BME280_temperature;BME280_humidity;BME280_pressure;Samples;Min_cycle;Max_cycle;Signal;HPM_P1;HPM_P2
2022/06/18 00:00:08;;;;;;;;;;;;;;;;;;2090242;28;19927;-44
2022/06/18 00:01:09;;;;;;;;;;;;;;;;;;2090015;28;20382;-45
2022/06/18 00:02:10;;;;;;;;;;;;;;;;;;2089967;28;20024;-44
2022/06/18 00:03:11;;;;;;;;;;;;;;;;;;2090247;28;19927;-44
2022/06/18 00:04:11;;;;;;;;;;;;;;;;;;2090037;28;19921;-46
2022/06/18 00:05:12;;;;;;;;;;;;;;;;;;2090137;28;19921;-44
2022/06/18 00:06:13;;;;;;;;;;;;;;;;;;2089934;28;19928;-44
2022/06/18 00:07:14;;;;;;;;;;;;;;;;;;2090049;28;19966;-45
2022/06/18 00:08:15;;;;;;;;;;;;;;;;;;2089978;28;19928;-44
2022/06/18 00:09:16;;;;;;;;;;;;;;;;;;2090250;28;19921;-44
2022/06/18 00:10:17;;;;;;;;;;;;;;;;;;2089522;28;20019;-44
2022/06/18 00:13:56;;;;;;;;;;;;;;;;;;2081885;28;20012;-44
2022/06/18 00:14:57;;;;;;;;;;;;;;;;;;2081802;28;19975;-44
2022/06/18 00:15:58;;;;;;;;;;;;;;;;;;2081733;28;20362;-44
2022/06/18 00:16:59;;;;;;;;;;;;;;;;;;2081827;28;19921;-43
2022/06/18 00:18:00;;;;;;;;;;;;;;;;;;2081771;28;19929;-44
2022/06/18 00:19:01;;;;;;;;;;;;;;;;;;2081768;28;19925;-44
2022/06/18 00:20:02;;;;;;;;;;;;;;;;;;2081866;28;20286;-44
2022/06/18 00:21:03;;;;;;;;;;;;;;;;;;2081824;28;20007;-44
2022/06/18 00:22:04;;;;;;;;;;;;;;;;;;2081746;28;20004;-44
2022/06/18 00:23:05;;;;;;;;;;;;;;;;;;2081853;28;20044;-43
2022/06/18 00:24:06;;;;;;;;;;;;;;;;;;2081859;28;19933;-44
2022/06/18 00:25:11;;;;;;;;;;;;;;;;;;2081812;28;19921;-44
2022/06/18 00:26:12;;;;;;;;;;;;;;;;;;2081865;28;19964;-45
2022/06/18 00:27:12;;;;;;;;;;;;;;;;;;2081661;28;19921;-45
2022/06/18 00:28:13;;;;;;;;;;;;;;;;;;2081676;28;19928;-45
2022/06/18 00:29:14;;;;;;;;;;;;;;;;;;2081817;28;19943;-45
2022/06/18 00:30:15;;;;;;;;;;;;;;;;;;2081546;28;20003;-45
2022/06/18 00:31:16;;;;;;;;;;;;;;;;;;2081778;28;20381;-46
2022/06/18 00:32:17;;;;;;;;;;;;;;;;;;2081769;28;19971;-45
2022/06/18 00:33:18;;;;;;;;;;;;;;;;;;2081493;28;19959;-45
2022/06/18 00:34:19;;;;;;;;;;;;;;;;;;2081669;28;19989;-45
2022/06/18 00:35:19;;;;;;;;;;;;;;;;;;2081612;28;19925;-45
2022/06/18 00:36:22;;;;;;;;;;;;;;;;;;2081636;28;19921;-44
2022/06/18 00:37:25;;;;;;;;;;;;;;;;;;2081703;28;19928;-45
2022/06/18 00:38:26;;;;;;;;;;;;;;;;;;2081600;28;19921;-45
2022/06/18 00:39:26;;;;;;;;;;;;;;;;;;2081534;28;19949;-45
2022/06/18 00:40:27;;;;;;;;;;;;;;;;;;2081768;28;20290;-44
2022/06/18 00:41:28;;;;;;;;;;;;;;;;;;2084742;28;19924;-45
2022/06/18 00:42:29;;;;;;;;;;;;;;;;;;2090018;28;19924;-44
2022/06/18 00:43:30;;;;;;;;;;;;;;;;;;2089847;28;20346;-45
2022/06/18 00:44:31;;;;;;;;;;;;;;;;;;2089808;28;19963;-44
2022/06/18 00:45:32;;;;;;;;;;;;;;;;;;2089885;28;19928;-46
2022/06/18 00:46:33;;;;;;;;;;;;;;;;;;2089900;28;19927;-45
2022/06/18 00:47:33;;;;;;;;;;;;;;;;;;2089839;28;20267;-47
2022/06/18 00:48:34;;;;;;;;;;;;;;;;;;2089813;28;19928;-47
2022/06/18 00:49:35;;;;;;;;;;;;;;;;;;2089816;28;19920;-46
2022/06/18 00:50:36;;;;;;;;;;;;;;;;;;2089865;28;19962;-45
2022/06/18 00:51:37;;;;;;;;;;;;;;;;;;2089764;28;19920;-46
2022/06/18 00:52:38;;;;;;;;;;;;;;;;;;2090107;28;19925;-45
2022/06/18 00:53:42;;;;;;;;;;;;;;;;;;2089763;28;20162;-46
2022/06/18 00:54:56;;;;;;;;;;;;;;;;;;2089826;28;20066;-46
2022/06/18 00:55:56;;;;;;;;;;;;;;;;;;2089690;28;20011;-45
2022/06/18 00:56:57;;;;;;;;;;;;;;;;;;2089763;28;20393;-45
2022/06/18 00:57:58;;;;;;;;;;;;;;;;;;2089784;28;19978;-45
2022/06/18 00:58:59;;;;;;;;;;;;;;;;;;2089804;28;19925;-46
2022/06/18 01:00:00;;;;;;;;;;;;;;;;;;2089631;28;19928;-45
2022/06/18 01:01:01;;;;;;;;;;;;;;;;;;2089739;28;20018;-45
2022/06/18 01:02:02;;;;;;;;;;;;;;;;;;2089696;28;19971;-45
2022/06/18 01:03:03;;;;;;;;;;;;;;;;;;2089917;28;19921;-44
2022/06/18 01:04:04;;;;;;;;;;;;;;;;;;2089699;28;19925;-44
2022/06/18 01:05:05;;;;;;;;;;;;;;;;;;2089851;28;19960;-44
2022/06/18 01:06:05;;;;;;;;;;;;;;;;;;2089651;28;20172;-44
2022/06/18 01:07:06;;;;;;;;;;;;;;;;;;2089693;28;19966;-44
2022/06/18 01:08:07;;;;;;;;;;;;;;;;;;2090061;28;20066;-46
2022/06/18 01:09:08;;;;;;;;;;;;;;;;;;2089602;28;20344;-46
2022/06/18 01:10:09;;;;;;;;;;;;;;;;;;2089663;28;19928;-45
2022/06/18 01:11:10;;;;;;;;;;;;;;;;;;2087098;28;19959;-45
2022/06/18 01:12:10;;;;;;;;;;;;;;;;;;2081385;28;19928;-45
2022/06/18 01:13:11;;;;;;;;;;;;;;;;;;2081457;28;19960;-46
2022/06/18 01:14:12;;;;;;;;;;;;;;;;;;2081571;28;19927;-46
2022/06/18 01:15:13;;;;;;;;;;;;;;;;;;2081455;28;19952;-46
2022/06/18 01:16:16;;;;;;;;;;;;;;;;;;2081361;28;19929;-45
2022/06/18 01:17:17;;;;;;;;;;;;;;;;;;2081409;28;19932;-45
2022/06/18 01:18:18;;;;;;;;;;;;;;;;;;2081335;28;19928;-45
2022/06/18 01:19:19;;;;;;;;;;;;;;;;;;2081441;28;20328;-45
2022/06/18 01:20:20;;;;;;;;;;;;;;;;;;2081397;28;19924;-46
2022/06/18 01:21:21;;;;;;;;;;;;;;;;;;2081258;28;20020;-45
2022/06/18 01:22:21;;;;;;;;;;;;;;;;;;2080586;28;19960;-45
2022/06/18 01:23:22;;;;;;;;;;;;;;;;;;2081518;28;19944;-46
2022/06/18 01:24:23;;;;;;;;;;;;;;;;;;2081362;28;20389;-45
2022/06/18 01:25:24;;;;;;;;;;;;;;;;;;2081508;28;20218;-45
2022/06/18 01:26:25;;;;;;;;;;;;;;;;;;2081247;28;19929;-45
2022/06/18 01:27:26;;;;;;;;;;;;;;;;;;2081521;28;19921;-47
2022/06/18 01:28:27;;;;;;;;;;;;;;;;;;2081710;28;19921;-44
2022/06/18 01:29:28;;;;;;;;;;;;;;;;;;2081330;28;20338;-44
2022/06/18 01:30:28;;;;;;;;;;;;;;;;;;2081471;28;20007;-44
2022/06/18 01:31:29;;;;;;;;;;;;;;;;;;2081312;28;19972;-44
2022/06/18 01:32:30;;;;;;;;;;;;;;;;;;2081753;28;19925;-44
2022/06/18 01:33:31;;;;;;;;;;;;;;;;;;2081212;28;19928;-45
2022/06/18 01:34:32;;;;;;;;;;;;;;;;;;2081348;28;20083;-44
2022/06/18 01:35:33;;;;;;;;;;;;;;;;;;2081246;28;19971;-45
2022/06/18 01:36:34;;;;;;;;;;;;;;;;;;2081250;28;20378;-44
2022/06/18 01:37:35;;;;;;;;;;;;;;;;;;2083164;28;19921;-44
2022/06/18 01:38:36;;;;;;;;;;;;;;;;;;2089414;28;20023;-44
2022/06/18 01:39:37;;;;;;;;;;;;;;;;;;2089653;28;20022;-45
2022/06/18 01:40:38;;;;;;;;;;;;;;;;;;2089477;28;20350;-43
2022/06/18 01:41:51;;;;;;;;;;;;;;;;;;2089586;28;20363;-44
2022/06/18 01:42:52;;;;;;;;;;;;;;;;;;2089454;28;19956;-45
2022/06/18 01:43:52;;;;;;;;;;;;;;;;;;2089516;28;19971;-44
2022/06/18 01:44:54;;;;;;;;;;;;;;;;;;2089844;28;19928;-44
2022/06/18 01:45:54;;;;;;;;;;;;;;;;;;2089373;28;19920;-45
2022/06/18 01:46:55;;;;;;;;;;;;;;;;;;2089547;28;19927;-45
2022/06/18 01:47:56;;;;;;;;;;;;;;;;;;2089608;28;19959;-43
2022/06/18 01:48:57;;;;;;;;;;;;;;;;;;2089758;28;20281;-46
2022/06/18 01:49:59;;;;;;;;;;;;;;;;;;2089456;28;20062;-47
2022/06/18 01:51:00;;;;;;;;;;;;;;;;;;2089831;28;19960;-46
2022/06/18 01:52:00;;;;;;;;;;;;;;;;;;2089596;28;19951;-45
2022/06/18 01:53:01;;;;;;;;;;;;;;;;;;2089492;28;20358;-46
2022/06/18 01:54:02;;;;;;;;;;;;;;;;;;2089365;28;20362;-45
2022/06/18 01:55:03;;;;;;;;;;;;;;;;;;2089641;28;19920;-46
2022/06/18 01:56:04;;;;;;;;;;;;;;;;;;2089425;28;19982;-46
2022/06/18 01:57:05;;;;;;;;;;;;;;;;;;2089500;28;19956;-46
2022/06/18 01:58:06;;;;;;;;;;;;;;;;;;2089503;28;19924;-46
2022/06/18 01:59:07;;;;;;;;;;;;;;;;;;2089688;28;20024;-46
2022/06/18 02:00:08;;;;;;;;;;;;;;;;;;2089722;28;19955;-44
2022/06/18 02:01:09;;;;;;;;;;;;;;;;;;2089490;28;19978;-44
2022/06/18 02:02:10;;;;;;;;;;;;;;;;;;2089394;28;19929;-44
2022/06/18 02:03:11;;;;;;;;;;;;;;;;;;2089461;28;20393;-45
2022/06/18 02:04:12;;;;;;;;;;;;;;;;;;2089553;28;20382;-45
2022/06/18 02:05:17;;;;;;;;;;;;;;;;;;2089427;28;19920;-45
2022/06/18 02:06:18;;;;;;;;;;;;;;;;;;2089438;28;20011;-45
2022/06/18 02:07:19;;;;;;;;;;;;;;;;;;2089381;28;20309;-45
2022/06/18 02:08:20;;;;;;;;;;;;;;;;;;2089365;28;20301;-45
2022/06/18 02:09:21;;;;;;;;;;;;;;;;;;2089373;28;19923;-45
2022/06/18 02:10:22;;;;;;;;;;;;;;;;;;2089583;28;20011;-44
2022/06/18 02:11:23;;;;;;;;;;;;;;;;;;2085365;28;20274;-44
2022/06/18 02:12:23;;;;;;;;;;;;;;;;;;2081274;28;19928;-44
2022/06/18 02:13:24;;;;;;;;;;;;;;;;;;2081447;28;19963;-44
2022/06/18 02:14:25;;;;;;;;;;;;;;;;;;2081090;28;20397;-45
2022/06/18 02:15:26;;;;;;;;;;;;;;;;;;2081086;28;19928;-45
2022/06/18 02:16:27;;;;;;;;;;;;;;;;;;2080999;28;19928;-45
2022/06/18 02:17:28;;;;;;;;;;;;;;;;;;2081228;28;19921;-47
2022/06/18 02:18:29;;;;;;;;;;;;;;;;;;2081373;28;19928;-44
2022/06/18 02:19:30;;;;;;;;;;;;;;;;;;2081272;28;19925;-45
2022/06/18 02:20:31;;;;;;;;;;;;;;;;;;2081149;28;19921;-45
2022/06/18 02:21:32;;;;;;;;;;;;;;;;;;2081227;28;20282;-45
2022/06/18 02:22:33;;;;;;;;;;;;;;;;;;2081150;28;19921;-45
2022/06/18 02:23:34;;;;;;;;;;;;;;;;;;2081068;28;20447;-45
2022/06/18 02:24:34;;;;;;;;;;;;;;;;;;2081182;28;20002;-45
2022/06/18 02:25:36;;;;;;;;;;;;;;;;;;2081050;28;19921;-46
2022/06/18 02:26:38;;;;;;;;;;;;;;;;;;2081008;28;20008;-45
2022/06/18 02:27:39;;;;;;;;;;;;;;;;;;2081009;28;20015;-45
2022/06/18 02:28:40;;;;;;;;;;;;;;;;;;2081203;28;20011;-45
2022/06/18 02:29:41;;;;;;;;;;;;;;;;;;2081252;28;19921;-45
2022/06/18 02:30:42;;;;;;;;;;;;;;;;;;2081236;28;19929;-46
2022/06/18 02:31:45;;;;;;;;;;;;;;;;;;2081089;28;20008;-46
2022/06/18 02:32:46;;;;;;;;;;;;;;;;;;2081170;28;20008;-47
2022/06/18 02:33:47;;;;;;;;;;;;;;;;;;2083710;28;19940;-45
2022/06/18 02:34:48;;;;;;;;;;;;;;;;;;2090488;28;20439;-46
2022/06/18 02:35:49;;;;;;;;;;;;;;;;;;2090826;28;19921;-46
2022/06/18 02:36:49;;;;;;;;;;;;;;;;;;2090621;28;20004;-45
2022/06/18 02:37:50;;;;;;;;;;;;;;;;;;2090610;28;19931;-45
2022/06/18 02:38:51;;;;;;;;;;;;;;;;;;2090566;28;20019;-46
2022/06/18 02:39:52;;;;;;;;;;;;;;;;;;2090669;28;19955;-45
2022/06/18 02:40:53;;;;;;;;;;;;;;;;;;2090450;28;20273;-45
2022/06/18 02:41:54;;;;;;;;;;;;;;;;;;2090881;28;19928;-45
2022/06/18 02:42:55;;;;;;;;;;;;;;;;;;2090588;28;19920;-45
2022/06/18 02:43:56;;;;;;;;;;;;;;;;;;2090515;28;19920;-46
2022/06/18 02:44:57;;;;;;;;;;;;;;;;;;2090787;28;19921;-45
2022/06/18 02:45:58;;;;;;;;;;;;;;;;;;2090714;28;20506;-46
2022/06/18 02:46:59;;;;;;;;;;;;;;;;;;2090694;28;19921;-45
2022/06/18 02:47:59;;;;;;;;;;;;;;;;;;2090688;28;20357;-45
2022/06/18 02:49:00;;;;;;;;;;;;;;;;;;2090883;28;20007;-44
2022/06/18 02:50:01;;;;;;;;;;;;;;;;;;2090538;28;19920;-44
2022/06/18 02:51:02;;;;;;;;;;;;;;;;;;2090821;28;19952;-47
2022/06/18 02:52:03;;;;;;;;;;;;;;;;;;2090666;28;20007;-46
2022/06/18 02:53:04;;;;;;;;;;;;;;;;;;2090877;28;20031;-44
2022/06/18 02:54:05;;;;;;;;;;;;;;;;;;2090762;28;20045;-46
2022/06/18 02:55:06;;;;;;;;;;;;;;;;;;2090463;28;19921;-47
2022/06/18 02:56:07;;;;;;;;;;;;;;;;;;2090486;28;19921;-45
2022/06/18 02:57:08;;;;;;;;;;;;;;;;;;2090530;28;19920;-47
2022/06/18 02:58:09;;;;;;;;;;;;;;;;;;2090658;28;20003;-46
2022/06/18 02:59:10;;;;;;;;;;;;;;;;;;2090384;28;19970;-46
2022/06/18 03:00:12;;;;;;;;;;;;;;;;;;2090651;28;20413;-46
2022/06/18 03:01:13;;;;;;;;;;;;;;;;;;2090409;28;20004;-46
2022/06/18 03:02:14;;;;;;;;;;;;;;;;;;2090725;28;19920;-45
2022/06/18 03:03:15;;;;;;;;;;;;;;;;;;2090609;28;19964;-44
2022/06/18 03:04:16;;;;;;;;;;;;;;;;;;2090518;28;20288;-44
2022/06/18 03:05:17;;;;;;;;;;;;;;;;;;2090594;28;19925;-45
2022/06/18 03:06:18;;;;;;;;;;;;;;;;;;2090351;28;19921;-45
2022/06/18 03:07:19;;;;;;;;;;;;;;;;;;2091028;28;20366;-44
2022/06/18 03:08:20;;;;;;;;;;;;;;;;;;2090383;28;19925;-44
2022/06/18 03:09:21;;;;;;;;;;;;;;;;;;2090621;28;19927;-44
2022/06/18 03:13:01;;;;;;;;;;;;;;;;;;2082362;28;20039;-45
2022/06/18 03:14:02;;;;;;;;;;;;;;;;;;2082280;28;19952;-46
2022/06/18 03:15:03;;;;;;;;;;;;;;;;;;2082171;28;20396;-45
2022/06/18 03:16:03;;;;;;;;;;;;;;;;;;2082086;28;20007;-46
2022/06/18 03:17:04;;;;;;;;;;;;;;;;;;2082089;28;20388;-46
2022/06/18 03:18:06;;;;;;;;;;;;;;;;;;2082340;28;19959;-45
2022/06/18 03:19:07;;;;;;;;;;;;;;;;;;2082185;28;20036;-45
2022/06/18 03:20:08;;;;;;;;;;;;;;;;;;2082143;28;20012;-45
2022/06/18 03:21:09;;;;;;;;;;;;;;;;;;2082154;28;19921;-46
2022/06/18 03:22:10;;;;;;;;;;;;;;;;;;2082131;28;19932;-46
2022/06/18 03:23:11;;;;;;;;;;;;;;;;;;2082218;28;19921;-45
2022/06/18 03:24:12;;;;;;;;;;;;;;;;;;2082119;28;19963;-46
2022/06/18 03:25:13;;;;;;;;;;;;;;;;;;2082227;28;19921;-45
2022/06/18 03:26:13;;;;;;;;;;;;;;;;;;2082225;28;19963;-43
2022/06/18 03:27:14;;;;;;;;;;;;;;;;;;2082160;28;20588;-43
2022/06/18 03:28:15;;;;;;;;;;;;;;;;;;2082101;28;20435;-43
2022/06/18 03:29:17;;;;;;;;;;;;;;;;;;2082175;28;19936;-43
2022/06/18 03:30:18;;;;;;;;;;;;;;;;;;2085681;28;19939;-43
2022/06/18 03:31:19;;;;;;;;;;;;;;;;;;2090306;28;20317;-43
2022/06/18 03:32:19;;;;;;;;;;;;;;;;;;2090267;28;20428;-43
2022/06/18 03:33:20;;;;;;;;;;;;;;;;;;2090258;28;19990;-43
2022/06/18 03:34:21;;;;;;;;;;;;;;;;;;2090254;28;19925;-44
2022/06/18 03:35:22;;;;;;;;;;;;;;;;;;2090226;28;19921;-44
2022/06/18 03:36:23;;;;;;;;;;;;;;;;;;2090423;28;19920;-43
2022/06/18 03:37:24;;;;;;;;;;;;;;;;;;2090482;28;20011;-44
2022/06/18 03:38:25;;;;;;;;;;;;;;;;;;2090277;28;19925;-44
2022/06/18 03:39:25;;;;;;;;;;;;;;;;;;2090203;28;20309;-44
2022/06/18 03:40:26;;;;;;;;;;;;;;;;;;2090497;28;19921;-46
2022/06/18 03:41:27;;;;;;;;;;;;;;;;;;2090234;28;20269;-46
2022/06/18 03:42:28;;;;;;;;;;;;;;;;;;2090189;28;20007;-47
2022/06/18 03:43:30;;;;;;;;;;;;;;;;;;2090317;28;20023;-47
2022/06/18 03:44:31;;;;;;;;;;;;;;;;;;2089842;28;20419;-46
2022/06/18 03:45:32;;;;;;;;;;;;;;;;;;2089640;28;19921;-47
2022/06/18 03:46:33;;;;;;;;;;;;;;;;;;2090143;28;19921;-45
2022/06/18 03:47:34;;;;;;;;;;;;;;;;;;2090189;28;19921;-46
2022/06/18 03:48:35;;;;;;;;;;;;;;;;;;2090371;28;19924;-44
2022/06/18 03:49:36;;;;;;;;;;;;;;;;;;2090220;28;20438;-43
2022/06/18 03:50:37;;;;;;;;;;;;;;;;;;2090118;28;19920;-45
2022/06/18 03:51:37;;;;;;;;;;;;;;;;;;2090301;28;20027;-43
2022/06/18 03:52:39;;;;;;;;;;;;;;;;;;2090311;28;19925;-43
2022/06/18 03:53:39;;;;;;;;;;;;;;;;;;2090020;28;19960;-44
2022/06/18 03:54:40;;;;;;;;;;;;;;;;;;2090257;28;19962;-44
2022/06/18 03:55:41;;;;;;;;;;;;;;;;;;2090166;28;19926;-45
2022/06/18 03:56:42;;;;;;;;;;;;;;;;;;2090396;28;19924;-44
2022/06/18 03:57:43;;;;;;;;;;;;;;;;;;2090386;28;20006;-44
2022/06/18 03:58:44;;;;;;;;;;;;;;;;;;2090206;28;19924;-43
2022/06/18 03:59:44;;;;;;;;;;;;;;;;;;2089982;28;19971;-44
2022/06/18 04:00:45;;;;;;;;;;;;;;;;;;2090195;28;19968;-46
2022/06/18 04:01:46;;;;;;;;;;;;;;;;;;2090234;28;19921;-46
2022/06/18 04:02:47;;;;;;;;;;;;;;;;;;2090457;28;20374;-46
2022/06/18 04:03:48;;;;;;;;;;;;;;;;;;2090063;28;20389;-47
2022/06/18 04:04:49;;;;;;;;;;;;;;;;;;2090082;28;19921;-46
2022/06/18 04:05:50;;;;;;;;;;;;;;;;;;2090033;28;19924;-48
2022/06/18 04:06:51;;;;;;;;;;;;;;;;;;2089998;28;20055;-45
2022/06/18 04:07:52;;;;;;;;;;;;;;;;;;2090276;28;20018;-46
2022/06/18 04:08:53;;;;;;;;;;;;;;;;;;2090209;28;19921;-43
2022/06/18 04:09:54;;;;;;;;;;;;;;;;;;2090562;28;19935;-47
2022/06/18 04:10:55;;;;;;;;;;;;;;;;;;2089519;28;20007;-46
2022/06/18 04:11:55;;;;;;;;;;;;;;;;;;2082158;28;20313;-43
2022/06/18 04:12:56;;;;;;;;;;;;;;;;;;2081734;28;19921;-44
2022/06/18 04:14:00;;;;;;;;;;;;;;;;;;2081753;28;20025;-44
2022/06/18 04:15:01;;;;;;;;;;;;;;;;;;2081838;28;19921;-45
2022/06/18 04:16:02;;;;;;;;;;;;;;;;;;2081682;28;19968;-46
2022/06/18 04:17:03;;;;;;;;;;;;;;;;;;2081893;28;19952;-46
2022/06/18 04:18:03;;;;;;;;;;;;;;;;;;2081812;28;20016;-46
2022/06/18 04:19:05;;;;;;;;;;;;;;;;;;2081864;28;19928;-47
2022/06/18 04:20:05;;;;;;;;;;;;;;;;;;2081754;28;20020;-46
2022/06/18 04:21:07;;;;;;;;;;;;;;;;;;2082153;28;19925;-43
2022/06/18 04:22:07;;;;;;;;;;;;;;;;;;2081707;28;20007;-43
2022/06/18 04:23:09;;;;;;;;;;;;;;;;;;2081881;28;19921;-43
2022/06/18 04:24:10;;;;;;;;;;;;;;;;;;2082006;28;20002;-43
2022/06/18 04:25:11;;;;;;;;;;;;;;;;;;2081704;28;20325;-43
2022/06/18 04:26:12;;;;;;;;;;;;;;;;;;2082731;28;19929;-45
2022/06/18 04:27:16;;;;;;;;;;;;;;;;;;2089756;28;19920;-47
2022/06/18 04:28:17;;;;;;;;;;;;;;;;;;2090060;28;19925;-46
2022/06/18 04:29:18;;;;;;;;;;;;;;;;;;2090233;28;19920;-43
2022/06/18 04:30:19;;;;;;;;;;;;;;;;;;2090138;28;19921;-43
2022/06/18 04:31:20;;;;;;;;;;;;;;;;;;2089863;28;20004;-43
2022/06/18 04:32:21;;;;;;;;;;;;;;;;;;2090033;28;20007;-45
2022/06/18 04:33:22;;;;;;;;;;;;;;;;;;2089986;28;20007;-43
2022/06/18 04:34:23;;;;;;;;;;;;;;;;;;2090229;28;20318;-45
2022/06/18 04:35:23;;;;;;;;;;;;;;;;;;2090067;28;19921;-43
2022/06/18 04:36:24;;;;;;;;;;;;;;;;;;2089817;28;19924;-43
2022/06/18 04:37:25;;;;;;;;;;;;;;;;;;2089879;28;20267;-43
2022/06/18 04:38:26;;;;;;;;;;;;;;;;;;2089913;28;19928;-43
2022/06/18 04:39:27;;;;;;;;;;;;;;;;;;2089867;28;19920;-43
2022/06/18 04:40:32;;;;;;;;;;;;;;;;;;2089847;28;20356;-43
2022/06/18 04:41:52;;;;;;;;;;;;;;;;;;2090126;28;19920;-43
2022/06/18 04:42:53;;;;;;;;;;;;;;;;;;2089724;28;19953;-43
2022/06/18 04:43:55;;;;;;;;;;;;;;;;;;2089983;28;19920;-43
2022/06/18 04:44:56;;;;;;;;;;;;;;;;;;2089984;28;20401;-46
2022/06/18 04:45:57;;;;;;;;;;;;;;;;;;2089663;28;19978;-46
2022/06/18 04:46:57;;;;;;;;;;;;;;;;;;2089820;28;20397;-46
2022/06/18 04:47:58;;;;;;;;;;;;;;;;;;2090131;28;20008;-43
2022/06/18 04:48:59;;;;;;;;;;;;;;;;;;2090024;28;20015;-43
2022/06/18 04:50:00;;;;;;;;;;;;;;;;;;2089997;28;19960;-43
2022/06/18 04:51:01;;;;;;;;;;;;;;;;;;2089845;28;19971;-43
2022/06/18 04:52:02;;;;;;;;;;;;;;;;;;2089873;28;19920;-44
2022/06/18 04:53:03;;;;;;;;;;;;;;;;;;2089974;28;19966;-46
2022/06/18 04:54:04;;;;;;;;;;;;;;;;;;2089740;28;20423;-47
2022/06/18 04:55:04;;;;;;;;;;;;;;;;;;2089806;28;20398;-46
2022/06/18 04:56:05;;;;;;;;;;;;;;;;;;2089537;28;19978;-46
2022/06/18 04:57:06;;;;;;;;;;;;;;;;;;2089940;28;20369;-48
2022/06/18 04:58:07;;;;;;;;;;;;;;;;;;2089780;28;19924;-46
2022/06/18 04:59:08;;;;;;;;;;;;;;;;;;2090117;28;19959;-43
2022/06/18 05:00:09;;;;;;;;;;;;;;;;;;2089695;28;20294;-43
2022/06/18 05:01:09;;;;;;;;;;;;;;;;;;2089610;28;20387;-44
2022/06/18 05:02:10;;;;;;;;;;;;;;;;;;2089839;28;19955;-44
2022/06/18 05:03:11;;;;;;;;;;;;;;;;;;2089658;28;20023;-43
2022/06/18 05:04:12;;;;;;;;;;;;;;;;;;2089858;28;19925;-43
2022/06/18 05:05:13;;;;;;;;;;;;;;;;;;2089736;28;19967;-42
2022/06/18 05:06:14;;;;;;;;;;;;;;;;;;2089762;28;20062;-43
2022/06/18 05:07:15;;;;;;;;;;;;;;;;;;2089635;28;20309;-43
2022/06/18 05:08:16;;;;;;;;;;;;;;;;;;2090531;28;19959;-43
2022/06/18 05:09:18;;;;;;;;;;;;;;;;;;2090093;28;20550;-46
2022/06/18 05:10:19;;;;;;;;;;;;;;;;;;2089739;28;20015;-46
2022/06/18 05:11:20;;;;;;;;;;;;;;;;;;2085695;28;19921;-46
2022/06/18 05:12:21;;;;;;;;;;;;;;;;;;2081468;28;20028;-47
2022/06/18 05:13:22;;;;;;;;;;;;;;;;;;2081781;28;19995;-44
2022/06/18 05:14:23;;;;;;;;;;;;;;;;;;2081607;28;19921;-46
2022/06/18 05:15:24;;;;;;;;;;;;;;;;;;2081970;28;19961;-46
2022/06/18 05:16:25;;;;;;;;;;;;;;;;;;2081694;28;19970;-48
2022/06/18 05:17:26;;;;;;;;;;;;;;;;;;2081666;28;20428;-47
2022/06/18 05:18:27;;;;;;;;;;;;;;;;;;2081566;28;19921;-46
2022/06/18 05:19:28;;;;;;;;;;;;;;;;;;2081397;28;20011;-46
2022/06/18 05:20:29;;;;;;;;;;;;;;;;;;2081429;28;19979;-46
2022/06/18 05:21:29;;;;;;;;;;;;;;;;;;2081298;28;19960;-46
2022/06/18 05:22:30;;;;;;;;;;;;;;;;;;2082513;28;19932;-46
2022/06/18 05:23:31;;;;;;;;;;;;;;;;;;2089523;28;19943;-45
2022/06/18 05:24:32;;;;;;;;;;;;;;;;;;2089772;28;19932;-46
2022/06/18 05:25:33;;;;;;;;;;;;;;;;;;2089723;28;19999;-44
2022/06/18 05:26:34;;;;;;;;;;;;;;;;;;2089729;28;19964;-46
2022/06/18 05:27:34;;;;;;;;;;;;;;;;;;2089658;28;19959;-46
2022/06/18 05:28:36;;;;;;;;;;;;;;;;;;2089643;28;19920;-46
2022/06/18 05:29:37;;;;;;;;;;;;;;;;;;2089547;28;20074;-46
2022/06/18 05:30:38;;;;;;;;;;;;;;;;;;2089802;28;19920;-46
2022/06/18 05:31:38;;;;;;;;;;;;;;;;;;2089752;28;20007;-47
2022/06/18 05:32:39;;;;;;;;;;;;;;;;;;2089937;28;19920;-46
2022/06/18 05:33:40;;;;;;;;;;;;;;;;;;2090115;28;20424;-46
2022/06/18 05:34:41;;;;;;;;;;;;;;;;;;2089560;28;19920;-48
2022/06/18 05:35:42;;;;;;;;;;;;;;;;;;2089683;28;19971;-47
2022/06/18 05:36:43;;;;;;;;;;;;;;;;;;2089426;28;20297;-47
2022/06/18 05:37:46;;;;;;;;;;;;;;;;;;2089499;28;19964;-46
2022/06/18 05:38:49;;;;;;;;;;;;;;;;;;2089435;28;20057;-46
2022/06/18 05:39:50;;;;;;;;;;;;;;;;;;2089442;28;19921;-46
2022/06/18 05:40:51;;;;;;;;;;;;;;;;;;2089482;28;20007;-42
2022/06/18 05:41:52;;;;;;;;;;;;;;;;;;2089900;28;20517;-47
2022/06/18 05:42:54;;;;;;;;;;;;;;;;;;2089484;28;19920;-46
2022/06/18 05:43:55;;;;;;;;;;;;;;;;;;2089422;28;20587;-48
2022/06/18 05:44:56;;;;;;;;;;;;;;;;;;2089632;28;19933;-46
2022/06/18 05:45:57;;;;;;;;;;;;;;;;;;2089438;28;20290;-48
2022/06/18 05:46:58;;;;;;;;;;;;;;;;;;2089733;28;20002;-43
2022/06/18 05:47:59;;;;;;;;;;;;;;;;;;2089407;28;19921;-43
2022/06/18 05:49:00;;;;;;;;;;;;;;;;;;2089702;28;20019;-46
2022/06/18 05:50:01;;;;;;;;;;;;;;;;;;2089696;28;20007;-43
2022/06/18 05:51:02;;;;;;;;;;;;;;;;;;2089569;28;20378;-42
2022/06/18 05:52:03;;;;;;;;;;;;;;;;;;2089545;28;19964;-43
2022/06/18 05:53:04;;;;;;;;;;;;;;;;;;2089351;28;19920;-42
2022/06/18 05:54:04;;;;;;;;;;;;;;;;;;2089601;28;20008;-42
2022/06/18 05:55:05;;;;;;;;;;;;;;;;;;2089409;28;20275;-43
2022/06/18 05:56:06;;;;;;;;;;;;;;;;;;2089388;28;19967;-43
2022/06/18 05:57:07;;;;;;;;;;;;;;;;;;2089458;28;19975;-43
2022/06/18 05:58:08;;;;;;;;;;;;;;;;;;2089548;28;19921;-43
2022/06/18 05:59:09;;;;;;;;;;;;;;;;;;2089496;28;19982;-43
2022/06/18 06:00:10;;;;;;;;;;;;;;;;;;2089362;28;20419;-43
2022/06/18 06:01:11;;;;;;;;;;;;;;;;;;2089494;28;19998;-43
2022/06/18 06:02:11;;;;;;;;;;;;;;;;;;2089577;28;19928;-43
2022/06/18 06:03:13;;;;;;;;;;;;;;;;;;2089701;28;19921;-46
2022/06/18 06:04:16;;;;;;;;;;;;;;;;;;2089338;28;20007;-46
2022/06/18 06:05:21;;;;;;;;;;;;;;;;;;2089896;28;19924;-47
2022/06/18 06:06:22;;;;;;;;;;;;;;;;;;2089725;28;19921;-48
2022/06/18 06:07:24;;;;;;;;;;;;;;;;;;2089692;28;19946;-42
2022/06/18 06:08:25;;;;;;;;;;;;;;;;;;2089869;28;20019;-44
2022/06/18 06:12:05;;;;;;;;;;;;;;;;;;2082726;28;19928;-43
2022/06/18 06:13:05;;;;;;;;;;;;;;;;;;2082550;28;20295;-42
2022/06/18 06:14:06;;;;;;;;;;;;;;;;;;2082683;28;19972;-43
2022/06/18 06:15:07;;;;;;;;;;;;;;;;;;2082624;28;20286;-44
2022/06/18 06:16:08;;;;;;;;;;;;;;;;;;2082638;28;19925;-42
2022/06/18 06:17:09;;;;;;;;;;;;;;;;;;2082575;28;19986;-43
2022/06/18 06:18:10;;;;;;;;;;;;;;;;;;2082882;28;19948;-48
2022/06/18 06:19:11;;;;;;;;;;;;;;;;;;2087401;28;19925;-48
2022/06/18 06:20:12;;;;;;;;;;;;;;;;;;2090691;28;20320;-48
2022/06/18 06:21:12;;;;;;;;;;;;;;;;;;2090693;28;20397;-46
2022/06/18 06:22:13;;;;;;;;;;;;;;;;;;2090679;28;19920;-46
2022/06/18 06:23:14;;;;;;;;;;;;;;;;;;2090825;28;20012;-47
2022/06/18 06:24:15;;;;;;;;;;;;;;;;;;2090710;28;19924;-49
2022/06/18 06:25:16;;;;;;;;;;;;;;;;;;2090750;28;20428;-46
2022/06/18 06:26:17;;;;;;;;;;;;;;;;;;2090662;28;19920;-48
2022/06/18 06:27:18;;;;;;;;;;;;;;;;;;2091083;28;19964;-46
2022/06/18 06:28:19;;;;;;;;;;;;;;;;;;2090747;28;20328;-48
2022/06/18 06:29:20;;;;;;;;;;;;;;;;;;2091093;28;19982;-44
2022/06/18 06:30:21;;;;;;;;;;;;;;;;;;2090659;28;20363;-45
2022/06/18 06:31:21;;;;;;;;;;;;;;;;;;2090710;28;20241;-44
2022/06/18 06:32:23;;;;;;;;;;;;;;;;;;2090970;28;19952;-44
2022/06/18 06:33:23;;;;;;;;;;;;;;;;;;2090878;28;20063;-44
2022/06/18 06:34:25;;;;;;;;;;;;;;;;;;2090859;28;20013;-42
2022/06/18 06:35:25;;;;;;;;;;;;;;;;;;2090898;28;20382;-47
2022/06/18 06:36:27;;;;;;;;;;;;;;;;;;2090741;28;19920;-48
2022/06/18 06:37:31;;;;;;;;;;;;;;;;;;2091583;28;19920;-47
2022/06/18 06:38:32;;;;;;;;;;;;;;;;;;2090831;28;20377;-47
2022/06/18 06:39:33;;;;;;;;;;;;;;;;;;2090664;28;20493;-47
2022/06/18 06:40:34;;;;;;;;;;;;;;;;;;2090643;28;19927;-47
2022/06/18 06:41:35;;;;;;;;;;;;;;;;;;2090657;28;20003;-47
2022/06/18 06:42:36;;;;;;;;;;;;;;;;;;2090782;28;19920;-46
2022/06/18 06:43:36;;;;;;;;;;;;;;;;;;2091167;28;19959;-47
2022/06/18 06:44:37;;;;;;;;;;;;;;;;;;2090535;28;20536;-47
2022/06/18 06:45:38;;;;;;;;;;;;;;;;;;2090995;28;19974;-42
2022/06/18 06:46:39;;;;;;;;;;;;;;;;;;2090560;28;19971;-42
2022/06/18 06:47:40;;;;;;;;;;;;;;;;;;2090543;28;19928;-43
2022/06/18 06:48:41;;;;;;;;;;;;;;;;;;2091093;28;19963;-43
2022/06/18 06:49:42;;;;;;;;;;;;;;;;;;2090765;28;19959;-43
2022/06/18 06:50:43;;;;;;;;;;;;;;;;;;2090900;28;19962;-47
2022/06/18 06:51:44;;;;;;;;;;;;;;;;;;2091069;28;20047;-43
2022/06/18 06:52:45;;;;;;;;;;;;;;;;;;2090787;28;20029;-44
2022/06/18 06:53:45;;;;;;;;;;;;;;;;;;2090717;28;19983;-43
2022/06/18 06:57:20;;;;;;;;;;;;;;;;;;2090529;28;19975;-43
2022/06/18 06:57:27;;;;;;;;;;;;;;;;;;2090752;28;20076;-44
2022/06/18 06:58:28;;;;;;;;;;;;;;;;;;2090582;28;20305;-44
2022/06/18 06:59:29;;;;;;;;;;;;;;;;;;2090629;28;19952;-43
2022/06/18 07:00:30;;;;;;;;;;;;;;;;;;2090446;28;19975;-44
2022/06/18 07:01:31;;;;;;;;;;;;;;;;;;2090850;28;19932;-44
2022/06/18 07:02:32;;;;;;;;;;;;;;;;;;2090525;28;19966;-45
2022/06/18 07:03:33;;;;;;;;;;;;;;;;;;2090668;28;20011;-49
2022/06/18 07:04:33;;;;;;;;;;;;;;;;;;2090464;28;20007;-48
2022/06/18 07:05:35;;;;;;;;;;;;;;;;;;2090692;28;20346;-51
2022/06/18 07:06:35;;;;;;;;;;;;;;;;;;2090655;28;20015;-48